Time;durP1;ratioP1;P1;durP2;ratioP2;P2;SDS_P1;SDS_P2;PMS_P1;PMS_P2;Temp;Humidity;BMP_temperature;BMP_pressure;BME280_temperature;BME280_humidity;BME280_pressure;Samples;Min_cycle;Max_cycle;Signal;HPM_P1;HPM_P2
2023/04/26 00:00:44;;;;;;;6.65;2.70;;;;;;;23.35;25.08;101448.81;4178612;28;20293;-74
2023/04/26 00:02:47;;;;;;;5.75;2.33;;;;;;;23.41;25.00;101462.59;4179708;28;20128;-75
2023/04/26 00:04:57;;;;;;;6.00;2.40;;;;;;;23.44;25.05;101472.25;4179805;28;20102;-75
2023/04/26 00:06:59;;;;;;;5.88;2.40;;;;;;;23.40;25.01;101468.09;4179652;28;20045;-74
2023/04/26 00:09:01;;;;;;;4.45;1.92;;;;;;;23.43;24.89;101467.88;4179970;28;20098;-74
2023/04/26 00:11:02;;;;;;;7.70;2.30;;;;;;;23.39;25.23;101466.38;4178918;28;20063;-75
2023/04/26 00:13:04;;;;;;;6.65;2.40;;;;;;;23.45;25.19;101473.94;4179904;28;20049;-74
2023/04/26 00:15:06;;;;;;;6.07;2.47;;;;;;;23.45;25.28;101468.56;4179833;28;20057;-74
2023/04/26 00:17:08;;;;;;;5.45;2.17;;;;;;;23.44;25.41;101470.41;4179707;28;20049;-74
2023/04/26 00:19:10;;;;;;;5.07;2.25;;;;;;;23.43;25.07;101471.38;4179699;28;20045;-73
2023/04/26 00:21:12;;;;;;;5.70;2.28;;;;;;;23.43;25.23;101466.03;4178309;28;20421;-74
2023/04/26 00:23:14;;;;;;;4.97;2.10;;;;;;;23.47;25.16;101465.78;4179814;28;20052;-75
2023/04/26 00:25:16;;;;;;;4.95;2.15;;;;;;;23.46;25.28;101451.50;4179471;28;20061;-75
2023/04/26 00:27:18;;;;;;;4.57;1.98;;;;;;;23.45;25.35;101441.72;4179722;28;20076;-74
2023/04/26 00:29:19;;;;;;;5.82;2.08;;;;;;;23.42;25.36;101439.31;4179577;28;20106;-76
2023/04/26 00:31:21;;;;;;;6.13;2.30;;;;;;;23.45;25.16;101437.22;4178158;28;20417;-76
2023/04/26 00:33:23;;;;;;;4.40;2.00;;;;;;;23.45;25.23;101442.59;4179685;28;20506;-76
2023/04/26 00:35:25;;;;;;;5.03;2.30;;;;;;;23.36;25.30;101424.53;4179720;28;20528;-74
2023/04/26 00:37:26;;;;;;;;;;;;;;;23.46;25.17;101448.81;4178771;28;20331;-74
2023/04/26 00:39:28;;;;;;;4.05;1.92;;;;;;;23.44;25.30;101446.25;4179687;28;19921;-76
2023/04/26 00:41:30;;;;;;;5.40;2.10;;;;;;;23.51;25.09;101448.47;4178526;28;20044;-74
2023/04/26 00:43:31;;;;;;;5.38;2.47;;;;;;;23.47;25.31;101436.25;4179929;28;20518;-76
2023/04/26 00:45:34;;;;;;;4.47;2.00;;;;;;;23.49;24.91;101435.16;4194716;28;20053;-74
2023/04/26 00:47:36;;;;;;;5.07;2.40;;;;;;;23.49;25.26;101435.16;4211414;28;20044;-74
2023/04/26 00:49:38;;;;;;;5.13;2.33;;;;;;;23.47;25.10;101429.06;4194919;28;20040;-73
2023/04/26 00:51:39;;;;;;;5.90;2.13;;;;;;;23.48;25.26;101425.41;4178719;28;20413;-73
2023/04/26 00:53:41;;;;;;;7.00;2.20;;;;;;;23.50;25.26;101423.44;4179686;28;20512;-74
2023/04/26 00:55:44;;;;;;;4.75;2.00;;;;;;;23.53;25.15;101428.56;4179673;28;20465;-74
2023/04/26 00:57:46;;;;;;;5.13;2.33;;;;;;;23.53;25.08;101433.09;4178160;28;20392;-74
2023/04/26 00:59:48;;;;;;;5.20;2.03;;;;;;;23.53;25.10;101430.41;4177905;28;20577;-73
2023/04/26 01:01:49;;;;;;;;;;;;;;;23.51;25.09;101424.28;4179222;28;20405;-73
2023/04/26 01:03:51;;;;;;;5.10;2.30;;;;;;;23.42;25.36;101421.34;4179540;28;19921;-73
2023/04/26 01:05:53;;;;;;;;;;;;;;;23.47;25.03;101426.38;4179795;28;20049;-74
2023/04/26 01:07:55;;;;;;;5.30;2.08;;;;;;;23.45;25.08;101421.13;4179706;28;20297;-73
2023/04/26 01:09:57;;;;;;;3.90;2.00;;;;;;;23.49;25.21;101415.50;4178619;28;20048;-74
2023/04/26 01:12:01;;;;;;;4.75;2.03;;;;;;;23.48;25.10;101411.97;4180401;28;20052;-73
2023/04/26 01:14:04;;;;;;;4.30;1.85;;;;;;;23.51;25.44;101410.88;4197770;28;20040;-72
2023/04/26 01:16:07;;;;;;;4.47;2.20;;;;;;;23.50;25.23;101403.78;4182170;28;20484;-73
2023/04/26 01:18:08;;;;;;;4.10;1.92;;;;;;;23.45;25.10;101396.09;4182457;28;20547;-74
2023/04/26 01:20:13;;;;;;;4.95;1.90;;;;;;;23.53;25.29;101408.94;4195559;28;20053;-74
2023/04/26 01:22:15;;;;;;;4.75;2.28;;;;;;;23.51;25.02;101411.72;4198811;28;20044;-74
2023/04/26 01:24:16;;;;;;;5.82;2.03;;;;;;;23.55;25.13;101404.25;4214051;28;20147;-74
2023/04/26 01:26:18;;;;;;;4.93;1.83;;;;;;;23.51;25.37;101400.13;4198877;28;20503;-73
2023/04/26 01:28:20;;;;;;;5.95;1.90;;;;;;;23.51;25.14;101392.06;4183200;28;20139;-73
2023/04/26 01:30:21;;;;;;;4.78;2.08;;;;;;;23.53;25.01;101388.28;4180996;28;20048;-73
2023/04/26 01:32:23;;;;;;;4.40;1.85;;;;;;;23.54;25.07;101387.31;4182050;28;20049;-73
2023/04/26 01:34:27;;;;;;;3.88;1.60;;;;;;;23.54;25.27;101383.78;4182113;28;20187;-74
2023/04/26 01:36:29;;;;;;;4.43;1.90;;;;;;;23.58;25.35;101379.88;4182217;28;20396;-73
2023/04/26 01:38:30;;;;;;;5.03;1.80;;;;;;;23.58;25.07;101387.94;4182269;28;20057;-73
2023/04/26 01:40:32;;;;;;;4.13;1.50;;;;;;;23.54;25.19;101395.38;4181198;28;20370;-73
2023/04/26 01:42:34;;;;;;;3.90;1.67;;;;;;;23.56;25.14;101404.16;4181839;28;20045;-73
2023/04/26 01:44:35;;;;;;;;;;;;;;;23.53;25.22;101392.81;4182201;28;20049;-72
2023/04/26 01:46:37;;;;;;;5.88;1.98;;;;;;;23.51;25.29;101397.44;4181858;28;19921;-73
2023/04/26 01:48:39;;;;;;;;;;;;;;;23.50;25.02;101390.38;4182433;28;20048;-73
2023/04/26 01:50:41;;;;;;;4.10;1.65;;;;;;;23.50;25.23;101390.38;4181126;28;19921;-73
2023/04/26 01:52:42;;;;;;;4.97;1.83;;;;;;;23.55;25.28;101394.41;4182140;28;20053;-73
2023/04/26 01:54:44;;;;;;;3.65;1.60;;;;;;;23.53;25.02;101393.66;4181944;28;20075;-73
2023/04/26 01:56:46;;;;;;;4.55;1.58;;;;;;;23.54;25.16;101389.16;4181746;28;20049;-74
2023/04/26 01:58:48;;;;;;;4.38;1.58;;;;;;;23.57;25.06;101402.31;4181590;28;20469;-73
2023/04/26 02:00:50;;;;;;;4.78;1.50;;;;;;;23.56;25.03;101398.78;4180834;28;20048;-74
2023/04/26 02:02:55;;;;;;;3.50;1.40;;;;;;;23.57;25.08;101391.59;4181718;28;20072;-73
2023/04/26 02:04:57;;;;;;;4.18;1.75;;;;;;;23.56;25.18;101393.44;4181804;28;20534;-73
2023/04/26 02:06:59;;;;;;;4.10;1.50;;;;;;;23.57;24.91;101387.09;4181501;28;20053;-74
2023/04/26 02:09:00;;;;;;;4.70;1.40;;;;;;;23.56;25.07;101379.13;4181672;28;20102;-73
2023/04/26 02:11:02;;;;;;;2.75;1.30;;;;;;;23.59;25.21;101376.22;4180466;28;20052;-73
2023/04/26 02:13:07;;;;;;;4.45;1.50;;;;;;;23.57;25.11;101365.59;4181615;28;20187;-74
2023/04/26 02:15:09;;;;;;;4.85;1.70;;;;;;;23.57;25.17;101365.59;4181515;28;20057;-73
2023/04/26 02:17:10;;;;;;;4.35;1.70;;;;;;;23.58;24.97;101366.44;4181519;28;20045;-73
2023/04/26 02:19:13;;;;;;;4.93;1.77;;;;;;;23.57;24.91;101375.47;4186814;28;20336;-74
2023/04/26 02:21:18;;;;;;;4.18;1.38;;;;;;;23.56;25.14;101380.00;4197018;28;20084;-73
2023/04/26 02:23:20;;;;;;;4.82;1.50;;;;;;;23.56;24.94;101371.06;4197938;28;20048;-74
2023/04/26 02:25:22;;;;;;;4.07;1.50;;;;;;;23.57;24.91;101380.84;4197745;28;20140;-74
2023/04/26 02:27:23;;;;;;;;;;;;;;;23.55;25.02;101389.03;4195620;28;20051;-73
2023/04/26 02:29:25;;;;;;;4.75;1.77;;;;;;;23.54;25.15;101391.84;4181486;28;20332;-73
2023/04/26 02:31:43;;;;;;;3.40;1.42;;;;;;;23.55;24.89;101377.41;4180131;28;20059;-74
2023/04/26 02:33:45;;;;;;;4.45;1.70;;;;;;;23.58;25.01;101371.81;4181224;28;20044;-73
2023/04/26 02:35:47;;;;;;;6.30;1.70;;;;;;;23.59;24.90;101386.94;4181381;28;20053;-74
2023/04/26 02:37:51;;;;;;;;;;;;;;;23.57;25.20;101383.53;4181640;28;20055;-73
2023/04/26 02:39:52;;;;;;;4.38;1.23;;;;;;;23.54;24.85;101381.94;4181315;28;19920;-74
2023/04/26 02:41:54;;;;;;;;;;;;;;;23.55;25.08;101380.09;4180223;28;20087;-74
2023/04/26 02:43:55;;;;;;;4.18;1.50;;;;;;;23.51;25.15;101373.28;4181031;28;20008;-73
2023/04/26 02:46:00;;;;;;;5.07;1.60;;;;;;;23.54;24.76;101371.22;4180889;28;20123;-73
2023/04/26 02:48:02;;;;;;;3.83;1.45;;;;;;;23.57;25.15;101367.41;4181006;28;20045;-74
2023/04/26 02:50:04;;;;;;;;;;;;;;;23.54;24.82;101356.94;4181565;28;20053;-73
2023/04/26 02:52:06;;;;;;;3.53;1.45;;;;;;;23.53;24.93;101364.13;4180041;28;19935;-74
2023/04/26 02:54:07;;;;;;;2.83;1.40;;;;;;;23.57;24.81;101362.91;4179570;28;20052;-73
2023/04/26 02:56:10;;;;;;;;;;;;;;;23.56;24.98;101358.53;4181330;28;20478;-73
2023/04/26 02:58:12;;;;;;;;;;;;;;;23.50;25.08;101356.34;4181166;28;20215;-73
2023/04/26 03:00:13;;;;;;;6.10;1.52;;;;;;;23.50;24.95;101359.03;4180473;28;19986;-74
2023/04/26 03:02:15;;;;;;;4.25;1.50;;;;;;;23.55;24.59;101364.88;4212379;28;20130;-74
2023/04/26 03:04:17;;;;;;;;;;;;;;;23.54;24.82;101367.69;4181286;28;20049;-74
2023/04/26 03:06:19;;;;;;;3.70;1.35;;;;;;;23.51;24.81;101363.38;4181005;28;19924;-73
2023/04/26 03:08:20;;;;;;;3.92;1.40;;;;;;;23.55;24.78;101367.53;4180931;28;20049;-73
2023/04/26 03:10:22;;;;;;;3.17;1.30;;;;;;;23.55;25.06;101355.94;4179826;28;20049;-73
2023/04/26 03:12:23;;;;;;;3.80;1.30;;;;;;;23.60;24.84;101365.34;4180306;28;20053;-74
2023/04/26 03:14:26;;;;;;;3.15;1.38;;;;;;;23.61;25.06;101366.22;4180748;28;20079;-73
2023/04/26 03:16:27;;;;;;;4.05;1.40;;;;;;;23.60;24.77;101356.44;4180681;28;20128;-73
2023/04/26 03:18:29;;;;;;;4.45;1.55;;;;;;;23.57;24.85;101349.50;4180482;28;20048;-74
2023/04/26 03:20:30;;;;;;;;;;;;;;;23.58;24.84;101361.06;4195348;28;20626;-74
2023/04/26 03:22:32;;;;;;;3.77;1.20;;;;;;;23.57;24.78;101360.22;4180597;28;19920;-73
2023/04/26 03:24:34;;;;;;;4.45;1.40;;;;;;;23.57;24.88;101349.50;4180298;28;20284;-74
2023/04/26 03:26:35;;;;;;;3.95;1.40;;;;;;;23.55;25.03;101354.13;4180924;28;20056;-77
2023/04/26 03:28:37;;;;;;;4.20;1.80;;;;;;;23.55;24.83;101348.75;4183961;28;20045;-74
2023/04/26 03:30:39;;;;;;;2.95;1.05;;;;;;;23.61;24.77;101360.84;4179405;28;20421;-74
2023/04/26 03:32:41;;;;;;;4.13;1.40;;;;;;;23.61;24.95;101353.63;4180232;28;20047;-74
2023/04/26 03:34:42;;;;;;;4.22;1.50;;;;;;;23.61;24.81;101367.06;4179622;28;20316;-75
2023/04/26 03:36:44;;;;;;;3.58;1.40;;;;;;;23.62;24.89;101365.19;4180333;28;20486;-73
2023/04/26 03:38:45;;;;;;;5.28;1.58;;;;;;;23.61;24.82;101360.84;4180362;28;20052;-73
2023/04/26 03:40:47;;;;;;;3.53;1.38;;;;;;;23.63;24.96;101361.53;4179105;28;20053;-73
2023/04/26 03:42:50;;;;;;;4.53;1.60;;;;;;;23.62;24.90;101365.19;4180235;28;20091;-75
2023/04/26 03:44:52;;;;;;;3.70;1.40;;;;;;;23.61;24.93;101361.69;4180272;28;20048;-74
2023/04/26 03:46:53;;;;;;;4.10;1.33;;;;;;;23.62;24.88;101354.47;4180079;28;20406;-74
2023/04/26 03:48:56;;;;;;;4.18;1.52;;;;;;;23.63;24.77;101358.88;4180046;28;20049;-74
2023/04/26 03:50:58;;;;;;;4.15;1.45;;;;;;;23.62;24.95;101357.16;4179395;28;20490;-75
2023/04/26 03:53:00;;;;;;;3.75;1.42;;;;;;;23.61;24.47;101359.00;4180103;28;20075;-75
2023/04/26 03:55:02;;;;;;;4.75;1.60;;;;;;;23.60;25.01;101357.28;4211625;28;20097;-74
2023/04/26 03:57:03;;;;;;;5.28;1.60;;;;;;;23.61;24.82;101358.16;4179908;28;20049;-74
2023/04/26 03:59:05;;;;;;;4.90;1.48;;;;;;;23.62;24.83;101357.16;4180434;28;20106;-74
2023/04/26 04:01:07;;;;;;;;;;;;;;;23.57;24.91;101349.50;4179322;28;20077;-74
2023/04/26 04:03:12;;;;;;;4.13;1.58;;;;;;;23.54;24.97;101347.03;4179923;28;19955;-75
2023/04/26 04:05:14;;;;;;;4.40;1.58;;;;;;;23.57;24.71;101345.94;4180131;28;20065;-75
2023/04/26 04:07:18;;;;;;;3.20;1.23;;;;;;;23.63;24.77;101352.66;4179781;28;20044;-74
2023/04/26 04:09:20;;;;;;;4.30;1.50;;;;;;;23.65;24.82;101354.22;4179537;28;20069;-74
2023/04/26 04:11:22;;;;;;;3.45;1.27;;;;;;;23.66;24.89;101355.06;4178834;28;20067;-75
2023/04/26 04:13:23;;;;;;;3.85;1.30;;;;;;;23.65;24.64;101358.75;4179826;28;20127;-74
2023/04/26 04:15:25;;;;;;;;;;;;;;;23.60;24.68;101357.28;4180370;28;20079;-74
2023/04/26 04:17:27;;;;;;;3.80;1.30;;;;;;;23.58;25.02;101359.22;4179983;28;19927;-75
2023/04/26 04:19:29;;;;;;;3.33;1.20;;;;;;;23.63;24.62;101363.41;4187607;28;20544;-74
2023/04/26 04:21:30;;;;;;;5.05;1.30;;;;;;;23.63;24.89;101361.53;4195367;28;20051;-74
2023/04/26 04:23:32;;;;;;;3.97;1.48;;;;;;;23.64;24.71;101367.78;4196166;28;20445;-74
2023/04/26 04:25:34;;;;;;;4.90;1.27;;;;;;;23.65;24.58;101348.84;4194749;28;20600;-75
2023/04/26 04:27:37;;;;;;;4.38;1.30;;;;;;;23.65;24.89;101342.66;4192343;28;20051;-74
2023/04/26 04:29:39;;;;;;;4.22;1.40;;;;;;;23.66;24.97;101349.69;4179925;28;20434;-75
2023/04/26 04:31:41;;;;;;;5.43;1.40;;;;;;;23.62;24.81;101349.09;4178612;28;20469;-75
2023/04/26 04:33:43;;;;;;;;;;;;;;;23.62;24.71;101359.84;4162518;28;20053;-74
2023/04/26 04:35:44;;;;;;;4.47;1.40;;;;;;;23.60;24.87;101359.97;4179817;28;19948;-74
2023/04/26 04:37:46;;;;;;;3.72;1.48;;;;;;;23.65;24.79;101356.06;4179269;28;20421;-75
2023/04/26 04:39:47;;;;;;;4.63;1.65;;;;;;;23.65;24.86;101350.69;4179414;28;20057;-75
2023/04/26 04:41:49;;;;;;;4.18;1.67;;;;;;;23.65;24.58;101353.38;4178810;28;20044;-74
2023/04/26 04:43:52;;;;;;;3.17;1.15;;;;;;;23.63;24.53;101355.34;4179525;28;20041;-75
2023/04/26 04:45:54;;;;;;;3.95;1.35;;;;;;;23.65;24.74;101354.22;4179657;28;20119;-74
2023/04/26 04:47:56;;;;;;;3.65;1.35;;;;;;;23.67;24.69;101351.41;4182375;28;20413;-74
2023/04/26 04:49:57;;;;;;;3.88;1.40;;;;;;;23.65;24.69;101354.22;4183181;28;20060;-74
2023/04/26 04:51:59;;;;;;;4.03;1.30;;;;;;;23.64;24.64;101352.53;4181835;28;20528;-75
2023/04/26 04:54:15;;;;;;;3.20;1.42;;;;;;;23.67;24.75;101354.09;4182370;28;20049;-75
2023/04/26 04:56:17;;;;;;;3.53;1.40;;;;;;;23.62;24.62;101354.47;4182794;28;20044;-75
2023/04/26 04:58:20;;;;;;;3.97;1.65;;;;;;;23.63;24.67;101350.81;4182616;28;20045;-74
2023/04/26 05:00:22;;;;;;;3.60;1.20;;;;;;;23.65;24.65;101340.81;4182047;28;20067;-75
2023/04/26 05:02:24;;;;;;;;;;;;;;;23.61;24.65;101337.50;4182883;28;20470;-74
2023/04/26 05:04:26;;;;;;;4.35;1.52;;;;;;;23.59;24.67;101336.78;4182600;28;19921;-75
2023/04/26 05:06:28;;;;;;;;;;;;;;;23.42;24.75;101313.13;4182949;28;20049;-74
2023/04/26 05:08:30;;;;;;;4.22;1.40;;;;;;;23.57;24.91;101348.63;4182075;28;19924;-74
2023/04/26 05:10:33;;;;;;;4.18;1.60;;;;;;;23.60;24.72;101354.59;4182577;28;20048;-74
2023/04/26 05:12:35;;;;;;;4.15;1.60;;;;;;;23.60;24.62;101351.06;4181879;28;20176;-74
2023/04/26 05:14:37;;;;;;;;;;;;;;;23.59;24.64;101342.16;4182938;28;20041;-74
2023/04/26 05:16:38;;;;;;;3.43;1.40;;;;;;;23.59;24.66;101344.81;4182293;28;19921;-75
2023/04/26 05:18:41;;;;;;;4.32;1.42;;;;;;;23.62;24.74;101346.41;4183276;28;20102;-75
2023/04/26 05:20:43;;;;;;;3.83;1.40;;;;;;;23.63;24.88;101350.81;4198170;28;20129;-74
2023/04/26 05:22:45;;;;;;;4.32;1.65;;;;;;;23.64;24.82;101357.88;4198235;28;20124;-75
2023/04/26 05:24:47;;;;;;;3.60;1.23;;;;;;;23.65;24.45;101366.81;4198778;28;20428;-75
2023/04/26 05:26:48;;;;;;;4.55;1.50;;;;;;;23.54;24.55;101347.03;4195859;28;20040;-74
2023/04/26 05:28:50;;;;;;;;;;;;;;;23.61;24.66;101359.00;4182276;28;20053;-74
2023/04/26 05:30:52;;;;;;;4.28;1.50;;;;;;;23.60;24.70;101361.81;4181537;28;20136;-75
2023/04/26 05:32:55;;;;;;;4.22;1.30;;;;;;;23.64;24.67;101373.16;4182172;28;20464;-75
2023/04/26 05:34:57;;;;;;;5.55;1.60;;;;;;;23.54;24.66;101343.53;4182064;28;20041;-74
2023/04/26 05:36:59;;;;;;;3.90;1.45;;;;;;;23.67;24.67;101364.84;4181981;28;20044;-74
2023/04/26 05:39:01;;;;;;;7.22;1.67;;;;;;;23.68;24.69;101366.56;4182348;28;20471;-75
2023/04/26 05:41:02;;;;;;;4.57;1.50;;;;;;;23.68;24.64;101366.56;4181583;28;20048;-75
2023/04/26 05:43:04;;;;;;;5.03;1.65;;;;;;;23.66;24.80;101364.00;4182160;28;20041;-75
2023/04/26 05:45:07;;;;;;;5.30;1.50;;;;;;;23.68;24.57;101358.50;4181957;28;20471;-76
2023/04/26 05:47:08;;;;;;;3.63;1.30;;;;;;;23.68;24.50;101364.75;4182129;28;20128;-75
2023/04/26 05:49:10;;;;;;;3.90;1.67;;;;;;;23.68;24.61;101366.56;4182050;28;20148;-75
2023/04/26 05:51:11;;;;;;;6.20;1.50;;;;;;;23.69;24.79;101365.56;4180620;28;20492;-74
2023/04/26 05:53:13;;;;;;;;;;;;;;;23.66;24.55;101361.31;4182200;28;20064;-74
2023/04/26 05:55:15;;;;;;;5.10;1.42;;;;;;;23.62;24.77;101351.78;4181990;28;19954;-77
2023/04/26 05:57:17;;;;;;;;;;;;;;;23.64;24.67;101365.94;4181598;28;20041;-73
2023/04/26 05:59:19;;;;;;;5.63;1.70;;;;;;;23.65;24.70;101366.81;4181860;28;19925;-77
2023/04/26 06:01:21;;;;;;;4.40;1.50;;;;;;;23.69;24.15;101365.56;4179766;28;20072;-77
2023/04/26 06:03:23;;;;;;;4.72;1.55;;;;;;;23.69;24.81;101361.03;4181768;28;20140;-77
2023/04/26 06:05:25;;;;;;;4.35;1.60;;;;;;;23.70;24.54;101362.75;4181562;28;20068;-77
2023/04/26 06:07:27;;;;;;;4.43;1.50;;;;;;;23.71;24.90;101360.94;4181681;28;20063;-77
2023/04/26 06:09:30;;;;;;;5.88;2.05;;;;;;;23.72;24.62;101366.19;4181757;28;20045;-77
2023/04/26 06:11:32;;;;;;;5.53;1.50;;;;;;;23.72;24.62;101366.19;4180772;28;20055;-77
2023/04/26 06:13:33;;;;;;;5.47;1.98;;;;;;;23.73;24.68;101375.94;4181608;28;20045;-77
2023/04/26 06:15:35;;;;;;;5.13;1.65;;;;;;;23.72;24.69;101374.25;4180240;28;20045;-77
2023/04/26 06:17:37;;;;;;;5.20;1.60;;;;;;;23.73;24.72;101373.28;4181579;28;20468;-77
2023/04/26 06:19:38;;;;;;;;;;;;;;;23.73;24.72;101373.28;4190742;28;20060;-73
2023/04/26 06:21:40;;;;;;;7.55;2.00;;;;;;;23.67;24.57;101371.09;4197253;28;19920;-77
2023/04/26 06:23:41;;;;;;;7.82;1.92;;;;;;;23.73;24.77;101375.06;4197884;28;20098;-77
2023/04/26 06:25:44;;;;;;;5.97;1.60;;;;;;;23.70;24.91;101370.81;4197727;28;20070;-76
2023/04/26 06:27:46;;;;;;;6.55;1.75;;;;;;;23.77;24.66;101374.72;4186681;28;20056;-77
2023/04/26 06:29:48;;;;;;;;;;;;;;;23.73;24.48;101370.59;4181779;28;20105;-74
2023/04/26 06:31:52;;;;;;;5.88;1.73;;;;;;;23.72;24.83;101365.31;4180065;28;19920;-77
2023/04/26 06:33:54;;;;;;;6.10;1.80;;;;;;;23.73;24.90;101365.22;4180867;28;20072;-74
2023/04/26 06:35:56;;;;;;;;;;;;;;;23.72;24.90;101371.56;4181447;28;20072;-74
2023/04/26 06:37:58;;;;;;;7.38;2.00;;;;;;;23.73;24.66;101367.03;4181042;28;19920;-74
2023/04/26 06:40:00;;;;;;;5.40;1.70;;;;;;;23.79;24.85;101371.91;4181218;28;20061;-77
2023/04/26 06:42:03;;;;;;;6.15;2.10;;;;;;;23.81;24.81;101367.25;4180148;28;20045;-74
2023/04/26 06:44:05;;;;;;;5.32;2.13;;;;;;;23.81;24.95;101356.50;4181110;28;20049;-76
2023/04/26 06:46:06;;;;;;;6.93;2.00;;;;;;;23.83;24.75;101367.13;4180980;28;20049;-75
2023/04/26 06:48:08;;;;;;;6.68;1.77;;;;;;;23.81;24.77;101369.09;4180919;28;20430;-77
2023/04/26 06:50:10;;;;;;;5.97;2.05;;;;;;;23.84;24.53;101376.91;4180837;28;20095;-74
2023/04/26 06:52:11;;;;;;;;;;;;;;;23.82;24.58;101371.66;4180319;28;20045;-74
2023/04/26 06:54:14;;;;;;;7.25;2.35;;;;;;;23.80;24.55;101373.59;4181045;28;20019;-73
2023/04/26 06:56:16;;;;;;;5.50;1.90;;;;;;;23.85;24.59;101383.97;4180755;28;20096;-74
2023/04/26 06:58:17;;;;;;;5.15;2.17;;;;;;;23.85;24.71;101383.97;4180883;28;20057;-74
2023/04/26 07:00:20;;;;;;;6.47;2.00;;;;;;;23.84;24.84;101379.59;4179475;28;20045;-74
2023/04/26 07:02:23;;;;;;;5.55;1.95;;;;;;;23.85;24.62;101381.28;4178665;28;20047;-76
2023/04/26 07:04:25;;;;;;;6.93;2.15;;;;;;;23.87;24.70;101382.88;4173791;28;20045;-74
2023/04/26 07:06:28;;;;;;;5.57;2.00;;;;;;;23.85;24.62;101371.41;4180623;28;20068;-73
2023/04/26 07:08:30;;;;;;;6.63;2.38;;;;;;;23.85;24.61;101374.09;4180485;28;20040;-73
2023/04/26 07:10:32;;;;;;;6.57;2.05;;;;;;;23.84;24.78;101375.09;4179889;28;20048;-76
2023/04/26 07:12:34;;;;;;;5.88;2.28;;;;;;;23.87;24.67;101372.13;4179730;28;20053;-74
2023/04/26 07:14:39;;;;;;;4.82;1.80;;;;;;;23.90;24.70;101382.63;4180521;28;20106;-73
2023/04/26 07:16:41;;;;;;;7.40;2.40;;;;;;;23.91;24.60;101376.28;4192674;28;20135;-73
2023/04/26 07:18:43;;;;;;;;;;;;;;;23.91;24.50;101378.09;4197160;28;20508;-72
2023/04/26 07:20:44;;;;;;;4.15;1.90;;;;;;;23.91;24.81;101389.72;4197129;28;19947;-74
2023/04/26 07:22:46;;;;;;;;;;;;;;;23.91;24.57;101388.84;4196473;28;20564;-74
2023/04/26 07:24:47;;;;;;;6.93;2.17;;;;;;;23.88;24.80;101384.59;4196983;28;19946;-73
2023/04/26 07:26:49;;;;;;;6.45;1.92;;;;;;;23.90;24.72;101382.63;4193654;28;20493;-73
2023/04/26 07:28:51;;;;;;;7.80;2.22;;;;;;;23.94;24.69;101380.59;4180220;28;20114;-73
2023/04/26 07:30:53;;;;;;;;;;;;;;;23.93;24.49;101376.19;4180760;28;20053;-73
2023/04/26 07:32:54;;;;;;;6.32;2.10;;;;;;;23.93;24.69;101370.81;4179254;28;19975;-73
2023/04/26 07:34:56;;;;;;;;;;;;;;;23.93;24.72;101370.81;4180799;28;20052;-73
2023/04/26 07:36:57;;;;;;;4.82;2.10;;;;;;;23.90;24.76;101360.28;4180267;28;20480;-73
2023/04/26 07:38:59;;;;;;;5.43;2.05;;;;;;;23.94;24.69;101369.84;4180157;28;20044;-73
2023/04/26 07:41:01;;;;;;;6.13;2.08;;;;;;;23.98;24.48;101370.44;4180295;28;20465;-73
2023/04/26 07:43:02;;;;;;;6.45;2.03;;;;;;;23.97;24.62;101364.19;4179075;28;20132;-73
2023/04/26 07:45:05;;;;;;;9.30;2.15;;;;;;;23.99;24.59;101358.72;4180051;28;20045;-73
2023/04/26 07:47:12;;;;;;;6.45;2.03;;;;;;;23.97;24.49;101350.75;4179820;28;20482;-73
2023/04/26 07:49:14;;;;;;;6.40;2.10;;;;;;;24.01;24.88;101359.41;4180042;28;20053;-73
2023/04/26 07:51:15;;;;;;;6.13;2.25;;;;;;;24.04;24.76;101360.03;4179314;28;20052;-74
2023/04/26 07:53:17;;;;;;;5.57;1.90;;;;;;;24.07;24.40;101356.22;4179965;28;20041;-73
2023/04/26 07:55:19;;;;;;;6.28;2.50;;;;;;;24.06;24.59;101354.53;4179953;28;20053;-74
2023/04/26 07:57:21;;;;;;;;;;;;;;;24.01;24.52;101352.22;4180498;28;20506;-73
2023/04/26 07:59:22;;;;;;;6.63;2.20;;;;;;;23.98;24.76;101354.31;4179902;28;19921;-73
2023/04/26 08:01:24;;;;;;;6.00;2.20;;;;;;;24.02;24.69;101358.44;4178913;28;20049;-77
2023/04/26 08:03:27;;;;;;;5.18;2.13;;;;;;;24.02;24.60;101358.44;4179822;28;20065;-73
2023/04/26 08:05:29;;;;;;;6.40;2.45;;;;;;;24.02;24.42;101356.63;4180060;28;20200;-74
2023/04/26 08:07:31;;;;;;;6.55;2.50;;;;;;;24.06;24.54;101352.69;4179969;28;20095;-73
2023/04/26 08:09:32;;;;;;;5.05;2.03;;;;;;;24.06;24.45;101357.22;4176314;28;20111;-72
2023/04/26 08:11:34;;;;;;;5.70;2.50;;;;;;;24.10;24.61;101358.66;4178712;28;20053;-77
2023/04/26 08:13:36;;;;;;;4.90;2.10;;;;;;;24.05;25.20;101358.22;4175951;28;20462;-73
2023/04/26 08:15:38;;;;;;;5.65;2.28;;;;;;;24.04;25.01;101361.88;4168404;28;20037;-69
2023/04/26 08:22:23;;;;;;;8.68;3.13;;;;;;;23.88;25.12;101355.03;4109229;28;20079;-72
2023/04/26 08:24:25;;;;;;;7.07;2.70;;;;;;;23.99;25.02;101351.50;4107952;28;20467;-74
2023/04/26 08:26:26;;;;;;;;;;;;;;;23.91;25.54;101352.09;4112744;28;20484;-71
2023/04/26 08:28:28;;;;;;;7.65;2.88;;;;;;;23.84;25.32;101347.34;4125155;28;20330;-74
2023/04/26 08:30:30;;;;;;;;;;;;;;;23.97;24.92;101348.06;4120231;28;20054;-73
2023/04/26 08:32:34;;;;;;;;;;;;;;;23.98;24.74;101344.41;4116104;28;19926;-75
2023/04/26 08:34:36;;;;;;;7.90;2.90;;;;;;;23.97;25.20;101341.84;4114652;28;19979;-77
2023/04/26 08:36:38;;;;;;;;;;;;;;;23.98;24.41;101338.19;4111404;28;20074;-76
2023/04/26 08:38:39;;;;;;;6.47;2.30;;;;;;;23.96;24.85;101342.84;4120983;28;19926;-75
2023/04/26 08:40:46;;;;;;;6.82;2.53;;;;;;;23.97;24.71;101342.69;4121527;28;20049;-76
2023/04/26 08:42:47;;;;;;;9.68;3.25;;;;;;;24.02;24.58;101348.56;4116582;28;20047;-73
2023/04/26 08:44:51;;;;;;;9.35;2.88;;;;;;;24.05;24.64;101344.78;4113827;28;20042;-74
2023/04/26 08:47:12;;;;;;;8.60;2.92;;;;;;;24.13;24.61;101333.38;4122763;28;20043;-69
2023/04/26 08:49:39;;;;;;;8.70;2.88;;;;;;;24.15;24.60;101342.16;4120299;28;20491;-70
2023/04/26 08:51:42;;;;;;;14.18;3.60;;;;;;;24.07;24.49;101330.22;4115839;28;20452;-68
2023/04/26 08:53:44;;;;;;;13.88;3.72;;;;;;;24.05;24.51;101342.91;4121863;28;20051;-73
2023/04/26 08:55:49;;;;;;;17.58;4.10;;;;;;;23.90;24.37;101338.78;4130431;28;20381;-70
2023/04/26 08:57:50;;;;;;;14.68;3.58;;;;;;;23.74;24.42;101339.19;4119730;28;20117;-71
2023/04/26 08:59:55;;;;;;;14.63;3.65;;;;;;;23.77;24.35;101345.16;4112828;28;20446;-72
2023/04/26 09:01:58;;;;;;;9.63;3.28;;;;;;;23.67;24.36;101346.91;4111787;28;20126;-71
2023/04/26 09:04:01;;;;;;;11.52;3.17;;;;;;;23.56;24.53;101344.22;4112337;28;20515;-72
2023/04/26 09:06:05;;;;;;;13.90;3.63;;;;;;;23.55;24.63;101347.88;4113837;28;20510;-71
2023/04/26 09:08:14;;;;;;;14.32;3.60;;;;;;;23.48;24.56;101338.66;4113246;28;20061;-72
2023/04/26 09:10:20;;;;;;;14.50;3.58;;;;;;;23.50;24.38;101333.97;4111310;28;20427;-72
2023/04/26 09:12:22;;;;;;;11.32;3.05;;;;;;;23.46;24.32;101333.38;4112721;28;20047;-72
2023/04/26 09:14:25;;;;;;;10.55;3.40;;;;;;;23.45;24.44;101337.91;4113665;28;20059;-72
2023/04/26 09:16:35;;;;;;;10.45;3.67;;;;;;;23.39;24.47;101334.84;4111541;28;20101;-73
2023/04/26 09:18:48;;;;;;;8.55;3.28;;;;;;;23.28;24.23;101336.56;4111747;28;20050;-72
2023/04/26 09:21:05;;;;;;;9.85;3.10;;;;;;;23.20;24.27;101338.16;4113163;28;20483;-70
2023/04/26 09:23:09;;;;;;;8.90;3.08;;;;;;;23.11;24.34;101331.66;4096257;29;20055;-73
2023/04/26 09:25:12;;;;;;;9.95;3.20;;;;;;;23.08;24.37;101335.44;4120085;28;20484;-70
2023/04/26 09:27:15;;;;;;;12.52;3.10;;;;;;;22.95;24.23;101313.22;4113750;28;20138;-70
2023/04/26 09:29:17;;;;;;;11.55;3.13;;;;;;;23.08;24.35;101335.44;4112284;28;20079;-69
2023/04/26 09:31:38;;;;;;;9.68;3.10;;;;;;;23.01;24.52;101318.09;4113667;28;20047;-73
2023/04/26 09:33:57;;;;;;;9.50;3.10;;;;;;;23.13;24.37;101333.22;4101447;29;20130;-75
2023/04/26 09:36:11;;;;;;;11.38;3.25;;;;;;;23.08;24.32;101329.22;4100516;29;20051;-77
2023/04/26 09:38:15;;;;;;;11.05;3.10;;;;;;;22.98;24.49;101332.63;4099790;29;20079;-73
2023/04/26 09:40:18;;;;;;;9.80;3.22;;;;;;;22.93;24.53;101320.53;4100402;29;20591;-76